Time;durP1;ratioP1;P1;durP2;ratioP2;P2;SDS_P1;SDS_P2;PMS_P1;PMS_P2;Temp;Humidity;BMP_temperature;BMP_pressure;BME280_temperature;BME280_humidity;BME280_pressure;Samples;Min_cycle;Max_cycle;Signal;HPM_P1;HPM_P2
2023/03/28 00:00:09;;;;;;;12.23;2.25;;;;;;;;;;4968114;28;98385;-73
2023/03/28 00:02:39;;;;;;;8.23;1.88;;;;;;;;;;4970806;28;99361;-72
2023/03/28 00:05:06;;;;;;;9.95;2.05;;;;;;;;;;4967983;28;98932;-73
2023/03/28 00:07:33;;;;;;;12.25;2.10;;;;;;;;;;4968400;28;98369;-73
2023/03/28 00:09:59;;;;;;;10.85;2.72;;;;;;;;;;4972365;28;99398;-73
2023/03/28 00:12:27;;;;;;;7.45;2.45;;;;;;;;;;4962333;28;98733;-72
2023/03/28 00:14:56;;;;;;;9.60;3.17;;;;;;;;;;4967650;28;99417;-72
2023/03/28 00:17:23;;;;;;;4.07;1.80;;;;;;;;;;4968362;28;100525;-72
2023/03/28 00:19:52;;;;;;;8.60;2.17;;;;;;;;;;4969627;28;98228;-73
2023/03/28 00:22:19;;;;;;;11.30;2.67;;;;;;;;;;4968473;28;99819;-72
2023/03/28 00:24:47;;;;;;;11.23;2.75;;;;;;;;;;4968632;28;99872;-73
2023/03/28 00:27:14;;;;;;;10.25;2.20;;;;;;;;;;4968765;28;98244;-73
2023/03/28 00:29:41;;;;;;;5.28;1.73;;;;;;;;;;4962440;28;101423;-73
2023/03/28 00:32:07;;;;;;;11.90;1.90;;;;;;;;;;4966898;28;98180;-72
2023/03/28 00:34:34;;;;;;;5.38;2.03;;;;;;;;;;4967762;28;98278;-73
2023/03/28 00:37:03;;;;;;;15.05;3.30;;;;;;;;;;4968977;28;98789;-73
2023/03/28 00:39:30;;;;;;;9.52;2.40;;;;;;;;;;4968304;28;98274;-72
2023/03/28 00:42:00;;;;;;;17.75;2.60;;;;;;;;;;4968077;28;98266;-73
2023/03/28 00:44:46;;;;;;;11.73;3.20;;;;;;;;;;4967066;28;99148;-74
2023/03/28 00:47:24;;;;;;;10.27;2.83;;;;;;;;;;4963162;28;98501;-74
2023/03/28 00:49:54;;;;;;;13.65;2.70;;;;;;;;;;4961051;28;99514;-73
2023/03/28 00:52:22;;;;;;;7.75;2.33;;;;;;;;;;4970619;28;101696;-73
2023/03/28 00:54:49;;;;;;;6.40;2.08;;;;;;;;;;4968663;28;100433;-73
2023/03/28 00:57:16;;;;;;;21.13;2.83;;;;;;;;;;4967315;28;98744;-73
2023/03/28 00:59:45;;;;;;;8.23;2.35;;;;;;;;;;4966648;28;98276;-72
2023/03/28 01:02:12;;;;;;;14.38;2.78;;;;;;;;;;4968299;28;98570;-73
2023/03/28 01:04:45;;;;;;;6.85;2.30;;;;;;;;;;4967328;28;98882;-73
2023/03/28 01:07:12;;;;;;;7.45;2.20;;;;;;;;;;4960132;28;98294;-72
2023/03/28 01:09:39;;;;;;;7.25;2.08;;;;;;;;;;4961082;28;98423;-73
2023/03/28 01:12:05;;;;;;;4.28;1.52;;;;;;;;;;4967665;28;99262;-73
2023/03/28 01:14:32;;;;;;;7.28;2.10;;;;;;;;;;4970179;28;98400;-73
2023/03/28 01:17:00;;;;;;;11.90;2.35;;;;;;;;;;4966261;28;98944;-73
2023/03/28 01:19:45;;;;;;;11.75;2.40;;;;;;;;;;4967160;28;98310;-73
2023/03/28 01:22:27;;;;;;;12.32;3.13;;;;;;;;;;4957570;28;98825;-73
2023/03/28 01:25:15;;;;;;;14.63;3.33;;;;;;;;;;4973261;28;101290;-73
2023/03/28 01:28:02;;;;;;;9.73;3.40;;;;;;;;;;4977180;28;100407;-73
2023/03/28 01:31:02;;;;;;;7.72;3.45;;;;;;;;;;4966388;28;98625;-73
2023/03/28 01:34:01;;;;;;;7.50;3.30;;;;;;;;;;4958983;28;99944;-73
2023/03/28 01:36:46;;;;;;;6.95;3.40;;;;;;;;;;4966880;28;99058;-73
2023/03/28 01:39:13;;;;;;;11.93;3.33;;;;;;;;;;4969622;28;101151;-73
2023/03/28 01:42:03;;;;;;;6.32;3.03;;;;;;;;;;4964528;28;98231;-73
2023/03/28 01:44:30;;;;;;;14.02;4.82;;;;;;;;;;4972493;28;101162;-73
2023/03/28 01:47:17;;;;;;;6.60;3.40;;;;;;;;;;4964160;28;101437;-73
2023/03/28 01:49:46;;;;;;;11.10;3.08;;;;;;;;;;4957667;28;98276;-73
2023/03/28 01:52:23;;;;;;;9.45;3.35;;;;;;;;;;4965943;28;101001;-75
2023/03/28 01:54:59;;;;;;;8.63;2.65;;;;;;;;;;4967383;28;98805;-73
2023/03/28 01:57:36;;;;;;;9.07;3.20;;;;;;;;;;4967745;28;98211;-74
2023/03/28 02:00:12;;;;;;;14.38;3.05;;;;;;;;;;4961106;28;98835;-73
2023/03/28 02:03:09;;;;;;;10.82;2.53;;;;;;;;;;4958146;28;98843;-74
2023/03/28 02:05:42;;;;;;;7.18;3.00;;;;;;;;;;4999921;28;98205;-73
2023/03/28 02:08:13;;;;;;;6.22;2.47;;;;;;;;;;4965263;28;99867;-73
2023/03/28 02:10:45;;;;;;;17.27;4.13;;;;;;;;;;4966234;28;98456;-73
2023/03/28 02:13:52;;;;;;;13.75;2.80;;;;;;;;;;4963153;28;98343;-73
2023/03/28 02:16:40;;;;;;;6.32;2.88;;;;;;;;;;4964260;28;98475;-73
2023/03/28 02:19:23;;;;;;;6.07;2.42;;;;;;;;;;4965177;28;98519;-73
2023/03/28 02:22:23;;;;;;;5.05;2.20;;;;;;;;;;4965027;28;101044;-73
2023/03/28 02:25:05;;;;;;;8.52;2.45;;;;;;;;;;4965368;28;101087;-73
2023/03/28 02:27:38;;;;;;;8.90;2.88;;;;;;;;;;4961316;28;98251;-72
2023/03/28 02:30:34;;;;;;;15.88;3.22;;;;;;;;;;4944846;28;98605;-72
2023/03/28 02:33:02;;;;;;;14.35;2.47;;;;;;;;;;4962485;28;98351;-72
2023/03/28 02:35:34;;;;;;;7.53;2.38;;;;;;;;;;4966371;28;100333;-73
2023/03/28 02:38:07;;;;;;;13.10;2.77;;;;;;;;;;4970277;28;100128;-73
2023/03/28 02:40:33;;;;;;;6.53;2.55;;;;;;;;;;4969454;28;98335;-72
2023/03/28 02:43:18;;;;;;;6.45;2.47;;;;;;;;;;4969255;28;100610;-73
2023/03/28 02:45:51;;;;;;;12.50;2.65;;;;;;;;;;4970695;28;99065;-72
2023/03/28 02:48:37;;;;;;;11.63;3.05;;;;;;;;;;4972996;28;98173;-73
2023/03/28 02:51:22;;;;;;;8.80;2.03;;;;;;;;;;4967342;28;105402;-72
2023/03/28 02:53:49;;;;;;;11.45;3.00;;;;;;;;;;5001764;28;98303;-74
2023/03/28 02:56:28;;;;;;;12.88;2.83;;;;;;;;;;4968474;28;98670;-73
2023/03/28 02:59:06;;;;;;;13.98;3.08;;;;;;;;;;4971429;28;101352;-73
2023/03/28 03:01:32;;;;;;;10.25;3.50;;;;;;;;;;4968485;28;98270;-73
2023/03/28 03:04:00;;;;;;;6.53;3.00;;;;;;;;;;4969296;28;98335;-74
2023/03/28 03:06:26;;;;;;;12.98;2.67;;;;;;;;;;4969560;28;98754;-73
2023/03/28 03:08:52;;;;;;;8.73;2.40;;;;;;;;;;4969598;28;100160;-73
2023/03/28 03:11:23;;;;;;;7.55;2.90;;;;;;;;;;4975926;28;100729;-73
2023/03/28 03:13:50;;;;;;;11.82;2.92;;;;;;;;;;4969805;28;98193;-73
2023/03/28 03:16:17;;;;;;;15.93;2.60;;;;;;;;;;4969469;28;98390;-73
2023/03/28 03:18:44;;;;;;;9.00;2.75;;;;;;;;;;4968605;28;101287;-73
2023/03/28 03:21:11;;;;;;;8.05;2.92;;;;;;;;;;4968708;28;98295;-73
2023/03/28 03:23:40;;;;;;;8.18;2.80;;;;;;;;;;4968011;28;100725;-73
2023/03/28 03:26:06;;;;;;;12.48;3.63;;;;;;;;;;4969883;28;99414;-73
2023/03/28 03:28:43;;;;;;;12.63;3.53;;;;;;;;;;4966186;28;99294;-72
2023/03/28 03:31:09;;;;;;;9.13;3.10;;;;;;;;;;4983059;28;98494;-72
2023/03/28 03:34:02;;;;;;;12.67;3.37;;;;;;;;;;4961677;28;98637;-72
2023/03/28 03:36:33;;;;;;;13.98;4.03;;;;;;;;;;4968248;28;98531;-72
2023/03/28 03:39:00;;;;;;;12.60;4.75;;;;;;;;;;4968060;28;99636;-72
2023/03/28 03:41:27;;;;;;;12.65;3.42;;;;;;;;;;5001295;28;98589;-72
2023/03/28 03:43:54;;;;;;;8.70;3.53;;;;;;;;;;4969889;28;99336;-72
2023/03/28 03:46:20;;;;;;;9.38;3.78;;;;;;;;;;4969005;28;99923;-72
2023/03/28 03:48:49;;;;;;;9.75;3.28;;;;;;;;;;4976734;28;98371;-72
2023/03/28 03:51:16;;;;;;;20.60;4.47;;;;;;;;;;4968043;28;100352;-72
2023/03/28 03:53:43;;;;;;;13.88;3.97;;;;;;;;;;4966490;28;100256;-72
2023/03/28 03:56:13;;;;;;;26.02;4.97;;;;;;;;;;4970986;28;98269;-73
2023/03/28 03:59:06;;;;;;;24.48;4.88;;;;;;;;;;4966105;28;99291;-73
2023/03/28 04:01:38;;;;;;;12.90;4.55;;;;;;;;;;4968321;28;98263;-73
2023/03/28 04:04:23;;;;;;;11.30;4.22;;;;;;;;;;4962924;28;98063;-71
2023/03/28 04:07:08;;;;;;;12.18;4.13;;;;;;;;;;4965931;28;98659;-72
2023/03/28 04:09:35;;;;;;;14.45;4.45;;;;;;;;;;4969324;28;98216;-72
2023/03/28 04:12:04;;;;;;;12.38;4.28;;;;;;;;;;4966621;28;100969;-73
2023/03/28 04:14:41;;;;;;;21.85;4.38;;;;;;;;;;4966880;28;101072;-73
2023/03/28 04:17:48;;;;;;;8.63;4.15;;;;;;;;;;4946619;28;98216;-73
2023/03/28 04:20:18;;;;;;;9.20;3.90;;;;;;;;;;4949612;28;98669;-73
2023/03/28 04:23:04;;;;;;;9.77;3.75;;;;;;;;;;4942531;28;98280;-73
2023/03/28 04:25:31;;;;;;;13.00;4.63;;;;;;;;;;4968859;28;99350;-73
2023/03/28 04:28:04;;;;;;;11.35;4.20;;;;;;;;;;4967386;28;99942;-73
2023/03/28 04:30:37;;;;;;;10.30;4.85;;;;;;;;;;4967449;28;98288;-74
2023/03/28 04:33:26;;;;;;;5.85;3.85;;;;;;;;;;4966893;28;98183;-73
2023/03/28 04:35:58;;;;;;;10.18;4.30;;;;;;;;;;4968880;28;101746;-72
2023/03/28 04:38:30;;;;;;;6.95;4.30;;;;;;;;;;4983188;28;98212;-72
2023/03/28 04:41:10;;;;;;;7.65;4.82;;;;;;;;;;4957787;28;99541;-72
2023/03/28 04:44:02;;;;;;;9.77;4.28;;;;;;;;;;4969932;28;98693;-72
2023/03/28 04:46:35;;;;;;;4.97;3.78;;;;;;;;;;4967185;28;100906;-72
2023/03/28 04:49:08;;;;;;;12.80;4.85;;;;;;;;;;4965224;28;101378;-72
2023/03/28 04:51:34;;;;;;;9.85;6.18;;;;;;;;;;4967253;28;98256;-72
2023/03/28 04:54:01;;;;;;;10.88;4.30;;;;;;;;;;4966974;28;101418;-72
2023/03/28 04:56:49;;;;;;;21.48;4.90;;;;;;;;;;4960979;28;98709;-72
2023/03/28 04:59:22;;;;;;;8.80;4.88;;;;;;;;;;4971422;28;98380;-73
2023/03/28 05:01:49;;;;;;;19.45;5.63;;;;;;;;;;4965628;28;102283;-72
2023/03/28 05:04:35;;;;;;;14.05;4.93;;;;;;;;;;4968943;28;98458;-72
2023/03/28 05:07:03;;;;;;;18.48;5.45;;;;;;;;;;4966791;28;100960;-72
2023/03/28 05:09:32;;;;;;;10.32;4.78;;;;;;;;;;4966491;28;101088;-72
2023/03/28 05:11:58;;;;;;;10.75;5.68;;;;;;;;;;4966619;28;98172;-72
2023/03/28 05:14:25;;;;;;;10.93;5.20;;;;;;;;;;4964330;28;99724;-72
2023/03/28 05:17:05;;;;;;;17.55;5.13;;;;;;;;;;4965732;28;101847;-72
2023/03/28 05:19:46;;;;;;;15.55;4.95;;;;;;;;;;4967108;28;98296;-72
2023/03/28 05:22:19;;;;;;;12.73;4.72;;;;;;;;;;4967272;28;101059;-73
2023/03/28 05:24:46;;;;;;;11.20;5.35;;;;;;;;;;4965877;28;101011;-73
2023/03/28 05:27:16;;;;;;;13.05;5.40;;;;;;;;;;4958653;28;98355;-72
2023/03/28 05:29:43;;;;;;;10.25;5.28;;;;;;;;;;4965533;28;99294;-73
2023/03/28 05:32:11;;;;;;;17.33;5.88;;;;;;;;;;4961696;28;98303;-73
2023/03/28 05:34:39;;;;;;;15.93;6.55;;;;;;;;;;4947679;28;100836;-72
2023/03/28 05:37:05;;;;;;;10.25;5.50;;;;;;;;;;4966664;28;99390;-72
2023/03/28 05:39:46;;;;;;;13.50;4.85;;;;;;;;;;4965465;28;98476;-73
2023/03/28 05:42:12;;;;;;;17.17;4.97;;;;;;;;;;4969496;28;98485;-74
2023/03/28 05:44:39;;;;;;;10.93;4.82;;;;;;;;;;4967338;28;100210;-73
2023/03/28 05:47:24;;;;;;;4.93;4.40;;;;;;;;;;4954315;28;98178;-73
2023/03/28 05:49:51;;;;;;;6.13;4.65;;;;;;;;;;4967455;28;98691;-73
2023/03/28 05:52:20;;;;;;;8.50;5.13;;;;;;;;;;4964565;28;98677;-73
2023/03/28 05:54:46;;;;;;;5.13;4.22;;;;;;;;;;4968183;28;99715;-73
2023/03/28 05:57:19;;;;;;;8.45;5.97;;;;;;;;;;4966545;28;101717;-73
2023/03/28 05:59:47;;;;;;;21.13;6.22;;;;;;;;;;4967095;28;98242;-73
2023/03/28 06:02:17;;;;;;;10.20;5.25;;;;;;;;;;4966243;28;98854;-73
2023/03/28 06:04:43;;;;;;;9.95;6.28;;;;;;;;;;4975252;28;101728;-73
2023/03/28 06:07:12;;;;;;;16.63;5.53;;;;;;;;;;4964061;28;100301;-73
2023/03/28 06:09:39;;;;;;;15.98;6.32;;;;;;;;;;4951836;28;101451;-73
2023/03/28 06:12:08;;;;;;;13.68;6.25;;;;;;;;;;4971774;28;101725;-73
2023/03/28 06:14:39;;;;;;;12.90;6.28;;;;;;;;;;4969698;28;99483;-73
2023/03/28 06:17:09;;;;;;;14.57;6.20;;;;;;;;;;4965989;28;101241;-73
2023/03/28 06:19:46;;;;;;;16.38;5.82;;;;;;;;;;4967437;28;98240;-73
2023/03/28 06:22:14;;;;;;;9.80;5.75;;;;;;;;;;4969523;28;99432;-73
2023/03/28 06:24:44;;;;;;;12.68;5.90;;;;;;;;;;4971076;28;100036;-73
2023/03/28 06:27:10;;;;;;;17.48;6.53;;;;;;;;;;4960459;28;98304;-73
2023/03/28 06:29:38;;;;;;;9.07;5.43;;;;;;;;;;4968892;28;100634;-72
2023/03/28 06:32:04;;;;;;;9.27;5.43;;;;;;;;;;4966401;28;100936;-74
2023/03/28 06:34:30;;;;;;;11.18;5.75;;;;;;;;;;4970089;28;100041;-74
2023/03/28 06:37:00;;;;;;;8.20;5.72;;;;;;;;;;4967127;28;101499;-72
2023/03/28 06:39:40;;;;;;;13.07;5.70;;;;;;;;;;4969312;28;98303;-72
2023/03/28 06:42:09;;;;;;;11.15;6.25;;;;;;;;;;4967729;28;99350;-73
2023/03/28 06:44:46;;;;;;;19.25;4.90;;;;;;;;;;4960838;28;100250;-73
2023/03/28 06:47:33;;;;;;;17.38;6.32;;;;;;;;;;4973146;28;98572;-74
2023/03/28 06:49:59;;;;;;;10.90;5.90;;;;;;;;;;4971378;28;101578;-74
2023/03/28 06:52:33;;;;;;;12.80;5.20;;;;;;;;;;4963961;28;101181;-74
2023/03/28 06:55:02;;;;;;;19.65;4.82;;;;;;;;;;4967937;28;98560;-74
2023/03/28 06:57:29;;;;;;;10.07;5.15;;;;;;;;;;4980366;28;99504;-74
2023/03/28 07:00:08;;;;;;;10.23;4.50;;;;;;;;;;4979172;28;98665;-73
2023/03/28 07:02:53;;;;;;;11.77;6.47;;;;;;;;;;4954605;28;98468;-73
2023/03/28 07:05:19;;;;;;;9.75;4.00;;;;;;;;;;4971287;28;99977;-73
2023/03/28 07:07:46;;;;;;;12.10;4.20;;;;;;;;;;4966335;28;98938;-73
2023/03/28 07:10:12;;;;;;;9.98;4.32;;;;;;;;;;4973316;28;98316;-73
2023/03/28 07:12:40;;;;;;;5.93;4.55;;;;;;;;;;4980680;28;101352;-74
2023/03/28 07:15:07;;;;;;;10.98;4.57;;;;;;;;;;4972204;28;98246;-73
2023/03/28 07:17:33;;;;;;;9.02;4.70;;;;;;;;;;4979657;28;101035;-73
2023/03/28 07:20:00;;;;;;;13.48;4.13;;;;;;;;;;4961144;28;98297;-73
2023/03/28 07:22:26;;;;;;;8.05;4.40;;;;;;;;;;4954431;28;99781;-73
2023/03/28 07:24:53;;;;;;;7.68;5.22;;;;;;;;;;4962392;28;101497;-73
2023/03/28 07:27:20;;;;;;;12.68;4.65;;;;;;;;;;4953598;28;98218;-73
2023/03/28 07:29:50;;;;;;;12.18;4.57;;;;;;;;;;4959401;28;101000;-73
2023/03/28 07:32:16;;;;;;;16.23;4.40;;;;;;;;;;4962309;28;101518;-73
2023/03/28 07:34:44;;;;;;;9.27;4.10;;;;;;;;;;4953206;28;98469;-73
2023/03/28 07:37:19;;;;;;;10.73;4.45;;;;;;;;;;4956527;28;100482;-73
2023/03/28 07:40:05;;;;;;;8.25;3.75;;;;;;;;;;4962632;28;101456;-73
2023/03/28 07:42:31;;;;;;;6.07;4.30;;;;;;;;;;4960842;28;98516;-72
2023/03/28 07:44:58;;;;;;;6.35;4.22;;;;;;;;;;4955409;28;99169;-73
2023/03/28 07:47:26;;;;;;;11.82;4.60;;;;;;;;;;4963432;28;98394;-73
2023/03/28 07:49:53;;;;;;;20.38;4.63;;;;;;;;;;4970777;28;100307;-73
2023/03/28 07:52:19;;;;;;;11.13;4.07;;;;;;;;;;4960195;28;101760;-73
2023/03/28 07:54:46;;;;;;;11.25;4.05;;;;;;;;;;4961864;28;98746;-73
2023/03/28 07:57:12;;;;;;;10.73;4.30;;;;;;;;;;4967331;28;101084;-73
2023/03/28 07:59:56;;;;;;;8.93;4.03;;;;;;;;;;4956938;28;101004;-73
2023/03/28 08:02:23;;;;;;;10.82;4.53;;;;;;;;;;4955037;28;98810;-73
2023/03/28 08:04:52;;;;;;;10.40;4.60;;;;;;;;;;4968412;28;101263;-73
2023/03/28 08:07:24;;;;;;;12.73;3.97;;;;;;;;;;4977003;28;98504;-73
2023/03/28 08:09:52;;;;;;;7.53;3.90;;;;;;;;;;4970304;28;100965;-73
2023/03/28 08:12:26;;;;;;;13.07;4.60;;;;;;;;;;4967212;28;101673;-73
2023/03/28 08:14:52;;;;;;;16.10;3.90;;;;;;;;;;4974993;28;98210;-73
2023/03/28 08:17:22;;;;;;;12.50;4.40;;;;;;;;;;4972697;28;100362;-73
2023/03/28 08:19:50;;;;;;;11.20;3.72;;;;;;;;;;4958525;28;101417;-73
2023/03/28 08:22:25;;;;;;;9.32;4.22;;;;;;;;;;4960199;28;98266;-73
2023/03/28 08:25:03;;;;;;;6.07;3.92;;;;;;;;;;4972581;28;100749;-72
2023/03/28 08:27:30;;;;;;;17.52;4.70;;;;;;;;;;4965160;28;98344;-73
2023/03/28 08:30:03;;;;;;;11.30;4.10;;;;;;;;;;4979000;28;100248;-74
2023/03/28 08:32:32;;;;;;;8.70;3.30;;;;;;;;;;4975620;28;101043;-73
2023/03/28 08:35:04;;;;;;;8.57;3.85;;;;;;;;;;4972658;28;98378;-73
2023/03/28 08:37:31;;;;;;;5.97;3.55;;;;;;;;;;4968702;28;102368;-72
2023/03/28 08:39:59;;;;;;;12.88;3.20;;;;;;;;;;4960893;28;101852;-73
2023/03/28 08:42:37;;;;;;;8.13;3.45;;;;;;;;;;4976913;28;99609;-73
2023/03/28 08:45:03;;;;;;;8.07;3.55;;;;;;;;;;4969091;28;98278;-73
2023/03/28 08:47:31;;;;;;;13.32;3.08;;;;;;;;;;4977146;28;101237;-73
2023/03/28 08:50:07;;;;;;;5.82;2.72;;;;;;;;;;4974197;28;99608;-73
2023/03/28 08:52:38;;;;;;;6.32;3.55;;;;;;;;;;4968319;28;99627;-74
2023/03/28 08:55:14;;;;;;;6.35;3.00;;;;;;;;;;4965665;28;99974;-74
2023/03/28 08:57:41;;;;;;;9.63;3.20;;;;;;;;;;4963952;28;99323;-73
2023/03/28 09:00:13;;;;;;;9.18;2.45;;;;;;;;;;4951596;28;99901;-74
2023/03/28 09:02:41;;;;;;;8.52;2.70;;;;;;;;;;4961406;28;98295;-74
2023/03/28 09:05:15;;;;;;;9.48;3.55;;;;;;;;;;4962259;28;98567;-74
2023/03/28 09:08:15;;;;;;;12.20;3.95;;;;;;;;;;4981346;28;100164;-74
2023/03/28 09:10:58;;;;;;;7.65;2.50;;;;;;;;;;4973838;28;98629;-74
2023/03/28 09:13:44;;;;;;;12.48;3.70;;;;;;;;;;4967550;28;101557;-74
2023/03/28 09:16:18;;;;;;;7.95;2.70;;;;;;;;;;4970132;28;98281;-74
2023/03/28 09:19:06;;;;;;;7.95;2.08;;;;;;;;;;4965599;28;101903;-74
2023/03/28 09:22:01;;;;;;;10.43;2.80;;;;;;;;;;4950522;28;98111;-73
2023/03/28 09:24:48;;;;;;;7.43;2.83;;;;;;;;;;4957672;28;99554;-73
2023/03/28 09:27:21;;;;;;;5.07;2.38;;;;;;;;;;4959335;28;100573;-74
2023/03/28 09:29:49;;;;;;;12.93;2.80;;;;;;;;;;4970181;28;100896;-74
2023/03/28 09:32:15;;;;;;;5.60;2.75;;;;;;;;;;4961646;28;100204;-73
2023/03/28 09:34:47;;;;;;;10.60;2.67;;;;;;;;;;4980495;28;100677;-74
2023/03/28 09:37:25;;;;;;;8.13;3.22;;;;;;;;;;4956204;28;99089;-73
2023/03/28 09:39:53;;;;;;;7.40;2.88;;;;;;;;;;4986724;28;98821;-74
2023/03/28 09:42:35;;;;;;;4.82;2.28;;;;;;;;;;4966166;28;101125;-73
2023/03/28 09:45:29;;;;;;;7.18;2.55;;;;;;;;;;4948686;28;98310;-74
2023/03/28 09:47:55;;;;;;;12.93;2.75;;;;;;;;;;4945616;28;98282;-75
2023/03/28 09:50:25;;;;;;;10.45;3.03;;;;;;;;;;4955725;28;101728;-75
2023/03/28 09:52:57;;;;;;;8.00;3.10;;;;;;;;;;4945681;28;98398;-73
2023/03/28 09:55:26;;;;;;;8.95;3.15;;;;;;;;;;4954408;28;99066;-74
2023/03/28 09:58:00;;;;;;;9.48;3.17;;;;;;;;;;4956887;28;99307;-74
2023/03/28 10:00:28;;;;;;;6.63;3.33;;;;;;;;;;4980279;28;100487;-74
2023/03/28 10:03:28;;;;;;;3.40;2.42;;;;;;;;;;4949686;28;100030;-74
2023/03/28 10:05:56;;;;;;;6.88;2.72;;;;;;;;;;4951159;28;98292;-74
2023/03/28 10:08:38;;;;;;;4.00;2.95;;;;;;;;;;4975360;28;100430;-74
2023/03/28 10:11:16;;;;;;;5.50;3.80;;;;;;;;;;4955596;28;99158;-74
2023/03/28 10:13:47;;;;;;;7.80;3.00;;;;;;;;;;4975309;28;98335;-74
2023/03/28 10:16:28;;;;;;;10.30;3.55;;;;;;;;;;4962834;28;100989;-73
2023/03/28 10:19:12;;;;;;;6.97;2.83;;;;;;;;;;4958307;28;98757;-74
2023/03/28 10:21:52;;;;;;;10.32;2.80;;;;;;;;;;4964574;28;98818;-74
2023/03/28 10:24:23;;;;;;;4.90;2.55;;;;;;;;;;4951154;28;99985;-73
2023/03/28 10:27:07;;;;;;;4.80;2.35;;;;;;;;;;4975099;28;98454;-73
2023/03/28 10:29:35;;;;;;;6.50;2.65;;;;;;;;;;4962513;28;101123;-73
2023/03/28 10:32:04;;;;;;;6.68;2.97;;;;;;;;;;4956561;28;99037;-73
2023/03/28 10:34:41;;;;;;;17.02;3.35;;;;;;;;;;4956531;28;98245;-73
2023/03/28 10:37:26;;;;;;;7.35;2.85;;;;;;;;;;4961238;28;100983;-73
2023/03/28 10:40:16;;;;;;;5.78;3.28;;;;;;;;;;4950409;28;99915;-73
2023/03/28 10:42:49;;;;;;;9.55;3.38;;;;;;;;;;4953775;28;98124;-73
2023/03/28 10:45:36;;;;;;;4.97;2.60;;;;;;;;;;4962464;28;98494;-73
2023/03/28 10:48:16;;;;;;;10.30;2.40;;;;;;;;;;4968259;28;98247;-73
2023/03/28 10:50:48;;;;;;;6.07;2.10;;;;;;;;;;4965929;28;100612;-74
2023/03/28 10:53:21;;;;;;;5.72;2.53;;;;;;;;;;4977777;28;101340;-74
2023/03/28 10:56:00;;;;;;;7.65;2.13;;;;;;;;;;4950513;28;100046;-74
2023/03/28 10:58:38;;;;;;;6.35;2.08;;;;;;;;;;4967909;28;100790;-73
2023/03/28 11:01:23;;;;;;;4.28;2.38;;;;;;;;;;4970037;28;100003;-73
2023/03/28 11:04:12;;;;;;;5.32;1.92;;;;;;;;;;4964956;28;100478;-73
2023/03/28 11:07:14;;;;;;;7.68;2.53;;;;;;;;;;4966177;28;100325;-73
2023/03/28 11:10:05;;;;;;;5.95;3.80;;;;;;;;;;4971011;28;98160;-74
2023/03/28 11:12:50;;;;;;;6.80;1.65;;;;;;;;;;4966076;28;98545;-74
2023/03/28 11:15:25;;;;;;;3.25;1.60;;;;;;;;;;4968794;28;101135;-73
2023/03/28 11:18:06;;;;;;;3.13;1.83;;;;;;;;;;4952659;28;98281;-73
2023/03/28 11:20:43;;;;;;;5.60;1.90;;;;;;;;;;4969665;28;98803;-73
2023/03/28 11:23:19;;;;;;;7.75;2.10;;;;;;;;;;4956722;28;100003;-73
2023/03/28 11:26:25;;;;;;;5.78;2.17;;;;;;;;;;4957406;28;99607;-74
2023/03/28 11:29:21;;;;;;;5.35;2.00;;;;;;;;;;4954768;28;98208;-73
2023/03/28 11:32:15;;;;;;;3.67;2.10;;;;;;;;;;4972137;28;100233;-73
2023/03/28 11:34:52;;;;;;;4.65;1.88;;;;;;;;;;4958716;28;98656;-74
2023/03/28 11:37:21;;;;;;;4.18;2.20;;;;;;;;;;4979694;28;100192;-73
2023/03/28 11:39:52;;;;;;;4.32;1.95;;;;;;;;;;4956269;28;98632;-74
2023/03/28 11:42:30;;;;;;;3.50;1.90;;;;;;;;;;4969039;28;101047;-73
2023/03/28 11:45:02;;;;;;;8.32;2.20;;;;;;;;;;4971107;28;101585;-73
2023/03/28 11:47:40;;;;;;;10.52;2.33;;;;;;;;;;4966659;28;98305;-73
2023/03/28 11:50:27;;;;;;;4.72;1.85;;;;;;;;;;4979290;28;98658;-73
2023/03/28 11:53:28;;;;;;;8.25;2.92;;;;;;;;;;4955532;28;99903;-74
2023/03/28 11:56:19;;;;;;;5.18;2.17;;;;;;;;;;4962944;28;101257;-74
2023/03/28 11:59:04;;;;;;;3.83;2.28;;;;;;;;;;4965008;28;101087;-74
2023/03/28 12:01:33;;;;;;;8.20;2.75;;;;;;;;;;4968791;28;98387;-74
2023/03/28 12:04:10;;;;;;;5.47;2.72;;;;;;;;;;4969710;28;98614;-74
2023/03/28 12:06:43;;;;;;;7.00;2.88;;;;;;;;;;4965080;28;101730;-74
2023/03/28 12:09:32;;;;;;;5.40;2.45;;;;;;;;;;4968942;28;98386;-74
2023/03/28 12:12:12;;;;;;;19.00;3.90;;;;;;;;;;4972231;28;100436;-73
2023/03/28 12:14:39;;;;;;;9.07;2.63;;;;;;;;;;4977951;28;98974;-73
2023/03/28 12:17:27;;;;;;;15.40;3.50;;;;;;;;;;4974620;28;98326;-74
2023/03/28 12:19:53;;;;;;;10.02;2.80;;;;;;;;;;4962451;28;99010;-73
2023/03/28 12:22:34;;;;;;;6.13;2.35;;;;;;;;;;4977091;28;99574;-73
2023/03/28 12:25:05;;;;;;;7.18;2.28;;;;;;;;;;4981320;28;99388;-73
2023/03/28 12:27:53;;;;;;;9.57;2.28;;;;;;;;;;4963874;28;101147;-73
2023/03/28 12:30:34;;;;;;;6.03;2.38;;;;;;;;;;4957724;28;98411;-73
2023/03/28 12:33:17;;;;;;;10.27;2.08;;;;;;;;;;4966557;28;101334;-73
2023/03/28 12:36:04;;;;;;;4.25;2.08;;;;;;;;;;4963112;28;99823;-73
2023/03/28 12:38:41;;;;;;;7.95;2.40;;;;;;;;;;4963818;28;98358;-74
2023/03/28 12:41:36;;;;;;;5.85;2.35;;;;;;;;;;4969811;28;100023;-73
2023/03/28 12:44:06;;;;;;;6.43;2.88;;;;;;;;;;4958075;28;99281;-73
2023/03/28 12:47:02;;;;;;;5.20;1.80;;;;;;;;;;4959740;28;102189;-73
2023/03/28 12:49:36;;;;;;;4.35;2.30;;;;;;;;;;4959930;28;101309;-73
2023/03/28 12:52:10;;;;;;;5.13;2.25;;;;;;;;;;4971227;28;98253;-73
2023/03/28 12:54:52;;;;;;;3.85;1.90;;;;;;;;;;4966760;28;99497;-74
2023/03/28 12:57:39;;;;;;;4.78;2.05;;;;;;;;;;4972598;28;100934;-73
2023/03/28 13:00:24;;;;;;;3.70;1.63;;;;;;;;;;4964721;28;99732;-73
2023/03/28 13:03:15;;;;;;;4.65;2.22;;;;;;;;;;4937463;28;98346;-72
2023/03/28 13:05:42;;;;;;;8.75;2.40;;;;;;;;;;4959701;28;98637;-73
2023/03/28 13:08:12;;;;;;;4.82;2.53;;;;;;;;;;4978136;28;98596;-74
2023/03/28 13:10:38;;;;;;;4.32;2.17;;;;;;;;;;4974152;28;100243;-74
2023/03/28 13:13:18;;;;;;;5.88;2.75;;;;;;;;;;4979565;28;98302;-74
2023/03/28 13:16:00;;;;;;;3.65;2.35;;;;;;;;;;4954090;28;98457;-74
2023/03/28 13:18:30;;;;;;;8.48;2.58;;;;;;;;;;4959985;28;102493;-74
2023/03/28 13:20:58;;;;;;;7.78;2.45;;;;;;;;;;4956101;28;98255;-73
2023/03/28 13:23:29;;;;;;;5.88;2.30;;;;;;;;;;4966595;28;99287;-73
2023/03/28 13:26:00;;;;;;;5.78;2.40;;;;;;;;;;4968409;28;99057;-73
2023/03/28 13:28:44;;;;;;;3.60;2.00;;;;;;;;;;4977154;28;98179;-73
2023/03/28 13:31:18;;;;;;;5.15;2.20;;;;;;;;;;4971261;28;99638;-73
2023/03/28 13:33:45;;;;;;;4.05;2.45;;;;;;;;;;4969407;28;99702;-72
2023/03/28 13:36:16;;;;;;;3.97;2.40;;;;;;;;;;4967660;28;99640;-73
2023/03/28 13:38:46;;;;;;;3.75;2.60;;;;;;;;;;4976139;28;99050;-74
2023/03/28 13:41:34;;;;;;;7.53;2.70;;;;;;;;;;4960220;28;98174;-74
2023/03/28 13:44:03;;;;;;;11.23;2.75;;;;;;;;;;4954242;28;99446;-73
2023/03/28 13:46:40;;;;;;;6.55;2.38;;;;;;;;;;4967545;28;100282;-73
2023/03/28 13:49:11;;;;;;;8.68;3.47;;;;;;;;;;4971138;28;98230;-73
2023/03/28 13:51:40;;;;;;;6.38;3.05;;;;;;;;;;4963707;28;99113;-73
2023/03/28 13:54:08;;;;;;;8.32;3.90;;;;;;;;;;4965671;28;98264;-73
2023/03/28 13:56:35;;;;;;;8.50;3.60;;;;;;;;;;4963522;28;98371;-74
2023/03/28 13:59:06;;;;;;;3.45;2.60;;;;;;;;;;4966735;28;99113;-74
2023/03/28 14:01:34;;;;;;;7.22;3.03;;;;;;;;;;4968090;28;98804;-74
2023/03/28 14:04:01;;;;;;;5.93;2.90;;;;;;;;;;4966273;28;98498;-74
2023/03/28 14:06:28;;;;;;;11.15;3.10;;;;;;;;;;4968461;28;99005;-74
2023/03/28 14:08:56;;;;;;;7.55;3.83;;;;;;;;;;4963800;28;98059;-73
2023/03/28 14:11:29;;;;;;;3.78;2.92;;;;;;;;;;4970083;28;98368;-74
2023/03/28 14:13:59;;;;;;;4.47;2.63;;;;;;;;;;4967441;28;99619;-73
2023/03/28 14:16:26;;;;;;;6.15;2.75;;;;;;;;;;4967302;28;98805;-73
2023/03/28 14:18:52;;;;;;;7.57;3.15;;;;;;;;;;4965851;28;99891;-74
2023/03/28 14:21:22;;;;;;;5.50;3.25;;;;;;;;;;4965409;28;98215;-74
2023/03/28 14:23:59;;;;;;;7.75;3.20;;;;;;;;;;4965746;28;98619;-72
2023/03/28 14:26:27;;;;;;;7.88;2.90;;;;;;;;;;4965906;28;100159;-74
2023/03/28 14:28:57;;;;;;;6.80;2.88;;;;;;;;;;4958370;28;100404;-74
2023/03/28 14:31:27;;;;;;;3.80;2.28;;;;;;;;;;4958306;28;99709;-74
2023/03/28 14:33:57;;;;;;;4.22;2.45;;;;;;;;;;4960312;28;100223;-74
2023/03/28 14:36:24;;;;;;;5.07;2.58;;;;;;;;;;4966528;28;99534;-73
2023/03/28 14:38:51;;;;;;;3.15;2.50;;;;;;;;;;4978560;28;99025;-74
2023/03/28 14:41:20;;;;;;;9.63;2.67;;;;;;;;;;4959022;28;98253;-74
2023/03/28 14:43:51;;;;;;;5.68;2.72;;;;;;;;;;4959501;28;99723;-74
2023/03/28 14:46:20;;;;;;;8.65;3.55;;;;;;;;;;4971087;28;98987;-74
2023/03/28 14:48:46;;;;;;;3.97;2.60;;;;;;;;;;4982052;28;98238;-74
2023/03/28 14:51:13;;;;;;;12.73;3.58;;;;;;;;;;4970866;28;99622;-73
2023/03/28 14:53:41;;;;;;;3.50;2.40;;;;;;;;;;4969121;28;98981;-74
2023/03/28 14:56:09;;;;;;;11.98;3.78;;;;;;;;;;4987524;28;99947;-74
2023/03/28 14:58:38;;;;;;;3.83;2.42;;;;;;;;;;4980243;28;98943;-74
2023/03/28 15:01:05;;;;;;;9.18;2.80;;;;;;;;;;4968935;28;98354;-74
2023/03/28 15:03:33;;;;;;;5.25;2.67;;;;;;;;;;4970706;28;99309;-74
2023/03/28 15:06:00;;;;;;;5.35;3.42;;;;;;;;;;4973671;28;99841;-74
2023/03/28 15:08:33;;;;;;;7.05;3.47;;;;;;;;;;4976668;28;98336;-74
2023/03/28 15:11:02;;;;;;;5.28;3.50;;;;;;;;;;4982557;28;99382;-74
2023/03/28 15:13:31;;;;;;;5.18;2.92;;;;;;;;;;4959902;28;99896;-73